createdAt,value
2018-08-13T00:00:50.445Z,1.55
2018-08-13T00:03:18.130Z,1.42
2018-08-13T00:05:46.054Z,1.40
2018-08-13T00:08:14.772Z,1.45
2018-08-13T00:10:42.434Z,1.52
2018-08-13T00:13:10.123Z,1.77
2018-08-13T00:15:37.841Z,1.40
2018-08-13T00:18:07.559Z,1.60
2018-08-13T00:20:35.514Z,1.45
2018-08-13T00:23:03.159Z,1.30
2018-08-13T00:25:30.753Z,1.50
2018-08-13T00:27:58.548Z,1.30
2018-08-13T00:30:26.190Z,1.80
2018-08-13T00:32:53.812Z,1.30
2018-08-13T00:35:21.451Z,1.50
2018-08-13T00:37:49.041Z,1.62
2018-08-13T00:40:16.649Z,1.25
2018-08-13T00:42:44.260Z,1.50
2018-08-13T00:45:12.794Z,1.72
2018-08-13T00:47:41.059Z,1.45
2018-08-13T00:50:14.676Z,1.37
2018-08-13T00:52:42.653Z,1.50
2018-08-13T00:55:11.437Z,1.75
2018-08-13T00:57:39.518Z,1.50
2018-08-13T01:00:15.375Z,1.30
2018-08-13T01:02:43.861Z,1.40
2018-08-13T01:05:12.377Z,1.40
2018-08-13T01:07:40.017Z,1.50
2018-08-13T01:10:11.516Z,1.27
2018-08-13T01:12:39.438Z,1.40
2018-08-13T01:15:09.279Z,1.42
2018-08-13T01:17:37.310Z,1.42
2018-08-13T01:20:07.365Z,1.52
2018-08-13T01:22:35.010Z,1.47
2018-08-13T01:25:02.705Z,1.30
2018-08-13T01:27:30.870Z,1.50
2018-08-13T01:29:59.600Z,1.50
2018-08-13T01:32:27.630Z,1.60
2018-08-13T01:34:55.306Z,1.42
2018-08-13T01:37:23.161Z,1.87
2018-08-13T01:39:50.837Z,1.50
2018-08-13T01:42:18.468Z,1.45
2018-08-13T01:44:46.109Z,1.37
2018-08-13T01:47:13.741Z,1.45
2018-08-13T01:49:41.304Z,1.57
2018-08-13T01:52:09.238Z,1.52
2018-08-13T01:54:36.862Z,1.40
2018-08-13T01:57:04.521Z,1.15
2018-08-13T01:59:32.140Z,1.65
2018-08-13T02:01:59.931Z,1.60
2018-08-13T02:04:27.539Z,1.60
2018-08-13T02:06:55.182Z,1.47
2018-08-13T02:09:27.419Z,1.50
2018-08-13T02:11:55.408Z,1.50
2018-08-13T02:14:24.049Z,1.70
2018-08-13T02:16:51.664Z,1.60
2018-08-13T02:19:19.662Z,1.57
2018-08-13T02:21:47.346Z,1.40
2018-08-13T02:24:14.958Z,1.45
2018-08-13T02:26:42.570Z,1.32
2018-08-13T02:29:10.205Z,1.60
2018-08-13T02:31:37.867Z,1.65
2018-08-13T02:34:05.586Z,1.62
2018-08-13T02:36:33.192Z,1.27
2018-08-13T02:39:00.869Z,1.42
2018-08-13T02:41:28.426Z,1.60
2018-08-13T02:43:56.093Z,1.50
2018-08-13T02:46:23.726Z,1.47
2018-08-13T02:48:51.389Z,1.40
2018-08-13T02:51:19.022Z,1.45
2018-08-13T02:53:46.675Z,1.60
2018-08-13T02:56:14.316Z,1.40
2018-08-13T02:58:41.961Z,1.72
2018-08-13T03:01:09.563Z,1.50
2018-08-13T03:03:37.194Z,1.50
2018-08-13T03:06:05.195Z,1.85
2018-08-13T03:08:32.802Z,1.60
2018-08-13T03:11:00.431Z,1.50
2018-08-13T03:13:28.026Z,1.70
2018-08-13T03:15:55.674Z,1.80
2018-08-13T03:18:23.263Z,2.02
2018-08-13T03:20:50.933Z,1.62
2018-08-13T03:23:18.564Z,2.00
2018-08-13T03:25:46.233Z,1.98
2018-08-13T03:28:13.858Z,1.62
2018-08-13T03:30:41.499Z,1.60
2018-08-13T03:33:09.125Z,1.72
2018-08-13T03:35:36.742Z,2.25
2018-08-13T03:38:04.413Z,1.65
2018-08-13T03:40:32.083Z,1.92
2018-08-13T03:42:59.808Z,1.90
2018-08-13T03:45:28.242Z,1.67
2018-08-13T03:47:55.850Z,1.62
2018-08-13T03:50:23.502Z,1.90
2018-08-13T03:52:51.153Z,2.00
2018-08-13T03:55:19.563Z,2.20
2018-08-13T03:57:47.226Z,1.55
2018-08-13T04:00:15.615Z,1.80
2018-08-13T04:02:43.496Z,2.02
2018-08-13T04:05:12.153Z,2.02
2018-08-13T04:07:39.795Z,2.30
2018-08-13T04:10:10.436Z,2.15
2018-08-13T04:12:39.877Z,2.42
2018-08-13T04:15:08.369Z,2.20
2018-08-13T04:17:35.962Z,2.00
2018-08-13T04:20:06.754Z,2.20
2018-08-13T04:22:34.385Z,2.30
2018-08-13T04:25:02.598Z,2.25
2018-08-13T04:27:30.239Z,2.30
2018-08-13T04:29:58.030Z,2.37
2018-08-13T04:32:25.757Z,2.33
2018-08-13T04:34:53.818Z,2.55
2018-08-13T04:37:21.442Z,2.33
2018-08-13T04:39:49.031Z,2.77
2018-08-13T04:42:16.630Z,2.40
2018-08-13T04:44:44.325Z,3.15
2018-08-13T04:47:11.948Z,2.52
2018-08-13T04:49:39.539Z,2.52
2018-08-13T04:52:07.329Z,2.83
2018-08-13T04:54:34.933Z,2.40
2018-08-13T04:57:02.618Z,2.40
2018-08-13T04:59:30.233Z,2.52
2018-08-13T05:01:57.814Z,2.20
2018-08-13T05:04:25.405Z,2.30
2018-08-13T05:06:53.009Z,2.60
2018-08-13T05:09:20.622Z,2.27
2018-08-13T05:11:48.244Z,2.02
2018-08-13T05:14:15.845Z,2.50
2018-08-13T05:16:43.433Z,2.95
2018-08-13T05:19:11.095Z,2.85
2018-08-13T05:21:38.706Z,2.83
2018-08-13T05:24:06.301Z,2.50
2018-08-13T05:26:33.941Z,2.20
2018-08-13T05:29:01.589Z,2.30
2018-08-13T05:31:29.158Z,2.98
2018-08-13T05:33:56.780Z,2.50
2018-08-13T05:36:24.454Z,2.60
2018-08-13T05:38:52.074Z,2.98
2018-08-13T05:41:19.746Z,2.90
2018-08-13T05:43:47.367Z,3.58
2018-08-13T05:46:14.998Z,3.00
2018-08-13T05:48:42.617Z,2.50
2018-08-13T05:51:10.241Z,2.75
2018-08-13T05:53:37.897Z,2.00
2018-08-13T05:56:05.527Z,2.98
2018-08-13T05:58:33.147Z,2.80
2018-08-13T06:01:00.786Z,3.22
2018-08-13T06:03:28.561Z,3.30
2018-08-13T06:05:56.206Z,3.17
2018-08-13T06:08:23.874Z,3.25
2018-08-13T06:10:51.473Z,3.67
2018-08-13T06:13:19.104Z,3.33
2018-08-13T06:15:46.726Z,3.47
2018-08-13T06:18:14.446Z,4.08
2018-08-13T06:20:42.004Z,3.58
2018-08-13T06:23:09.738Z,3.80
2018-08-13T06:25:38.921Z,4.37
2018-08-13T06:28:07.191Z,3.85
2018-08-13T06:30:34.907Z,3.80
2018-08-13T06:33:03.388Z,3.30
2018-08-13T06:35:31.022Z,3.98
2018-08-13T06:37:58.650Z,3.45
2018-08-13T06:40:26.628Z,3.50
2018-08-13T06:42:56.019Z,3.52
2018-08-13T06:45:23.938Z,3.75
2018-08-13T06:47:51.862Z,4.35
2018-08-13T06:50:19.686Z,3.72
2018-08-13T06:52:47.576Z,3.90
2018-08-13T06:55:15.561Z,3.90
2018-08-13T06:57:43.267Z,4.50
2018-08-13T07:00:13.030Z,3.00
2018-08-13T07:02:40.960Z,3.55
2018-08-13T07:05:09.905Z,2.52
2018-08-13T07:07:39.114Z,3.65
2018-08-13T07:10:10.054Z,3.62
2018-08-13T07:12:39.140Z,4.45
2018-08-13T07:15:08.527Z,4.35
2018-08-13T07:17:36.985Z,2.85
2018-08-13T07:20:06.868Z,4.37
2018-08-13T07:22:35.310Z,3.90
2018-08-13T07:25:03.603Z,3.70
2018-08-13T07:27:32.771Z,4.22
2018-08-13T07:30:01.304Z,4.62
2018-08-13T07:32:29.110Z,3.30
2018-08-13T07:34:57.008Z,3.98
2018-08-13T07:37:25.738Z,4.25
2018-08-13T07:39:53.479Z,4.40
2018-08-13T07:42:21.242Z,3.80
2018-08-13T07:44:50.466Z,4.87
2018-08-13T07:47:18.113Z,3.98
2018-08-13T07:49:45.855Z,5.55
2018-08-13T07:52:13.492Z,4.50
2018-08-13T07:54:41.121Z,4.50
2018-08-13T07:57:08.856Z,3.70
2018-08-13T07:59:36.586Z,2.98
2018-08-13T08:02:04.266Z,4.08
2018-08-13T08:04:31.930Z,3.60
2018-08-13T08:06:59.842Z,4.25
2018-08-13T08:09:27.562Z,3.98
2018-08-13T08:11:55.227Z,4.00
2018-08-13T08:14:22.909Z,4.10
2018-08-13T08:16:50.587Z,4.10
2018-08-13T08:19:18.951Z,4.83
2018-08-13T08:21:46.621Z,4.80
2018-08-13T08:24:14.342Z,5.20
2018-08-13T08:26:41.934Z,5.05
2018-08-13T08:29:09.996Z,4.40
2018-08-13T08:31:37.739Z,4.90
2018-08-13T08:34:05.850Z,4.45
2018-08-13T08:36:33.539Z,5.05
2018-08-13T08:39:01.179Z,5.17
2018-08-13T08:41:28.771Z,4.75
2018-08-13T08:43:56.434Z,4.70
2018-08-13T08:46:24.110Z,4.45
2018-08-13T08:48:51.705Z,4.20
2018-08-13T08:51:19.422Z,4.55
2018-08-13T08:53:47.141Z,3.75
2018-08-13T08:56:14.786Z,4.03
2018-08-13T08:58:42.443Z,4.10
2018-08-13T09:01:10.081Z,4.22
2018-08-13T09:03:37.714Z,3.42
2018-08-13T09:06:06.362Z,3.45
2018-08-13T09:08:34.024Z,4.00
2018-08-13T09:11:01.703Z,3.55
2018-08-13T09:13:29.325Z,3.50
2018-08-13T09:15:56.947Z,3.90
2018-08-13T09:18:41.791Z,3.35
2018-08-13T09:21:36.812Z,3.62
2018-08-13T09:24:22.175Z,3.20
2018-08-13T09:27:07.379Z,3.05
2018-08-13T09:29:52.283Z,3.50
2018-08-13T09:32:37.170Z,2.80
2018-08-13T09:35:22.740Z,2.60
2018-08-13T09:37:50.391Z,3.33
2018-08-13T09:40:18.049Z,2.87
2018-08-13T09:42:45.691Z,4.12
2018-08-13T09:45:13.342Z,3.20
2018-08-13T09:47:40.986Z,2.85
2018-08-13T09:50:13.511Z,2.62
2018-08-13T09:52:41.600Z,1.98
2018-08-13T09:55:09.295Z,2.75
2018-08-13T09:57:37.037Z,2.90
2018-08-13T10:00:07.544Z,3.50
2018-08-13T10:02:35.236Z,3.02
2018-08-13T10:05:02.889Z,2.87
2018-08-13T10:07:30.499Z,3.42
2018-08-13T10:09:58.153Z,4.70
2018-08-13T10:12:25.766Z,2.95
2018-08-13T10:14:53.422Z,2.60
2018-08-13T10:17:21.043Z,3.90
2018-08-13T10:19:48.679Z,3.45
2018-08-13T10:22:16.311Z,3.00
2018-08-13T10:24:43.957Z,3.00
2018-08-13T10:27:11.605Z,3.10
2018-08-13T10:29:39.245Z,2.50
2018-08-13T10:32:06.921Z,3.08
2018-08-13T10:34:34.610Z,3.95
2018-08-13T10:37:02.255Z,3.27
2018-08-13T10:39:29.858Z,3.20
2018-08-13T10:41:57.540Z,2.87
2018-08-13T10:44:25.180Z,2.90
2018-08-13T10:46:52.816Z,3.60
2018-08-13T10:49:20.526Z,2.92
2018-08-13T10:51:48.121Z,2.90
2018-08-13T10:54:15.775Z,3.60
2018-08-13T10:56:43.564Z,3.77
2018-08-13T10:59:11.158Z,2.87
2018-08-13T11:01:38.791Z,2.65
2018-08-13T11:04:06.438Z,2.37
2018-08-13T11:06:34.178Z,2.70
2018-08-13T11:09:01.843Z,2.42
2018-08-13T11:11:29.509Z,2.20
2018-08-13T11:13:57.123Z,3.52
2018-08-13T11:16:24.764Z,1.90
2018-08-13T11:18:52.697Z,2.70
2018-08-13T11:21:20.503Z,2.80
2018-08-13T11:23:48.111Z,2.98
2018-08-13T11:26:15.782Z,2.60
2018-08-13T11:28:43.436Z,2.30
2018-08-13T11:31:11.112Z,2.80
2018-08-13T11:33:38.785Z,2.75
2018-08-13T11:36:06.443Z,3.22
2018-08-13T11:38:34.126Z,1.98
2018-08-13T11:41:01.731Z,3.47
2018-08-13T11:43:29.407Z,2.10
2018-08-13T11:45:57.026Z,2.55
2018-08-13T11:48:24.667Z,2.40
2018-08-13T11:50:52.334Z,2.80
2018-08-13T11:53:19.950Z,2.52
2018-08-13T11:55:47.755Z,1.72
2018-08-13T11:58:15.411Z,2.40
2018-08-13T12:00:43.072Z,2.30
2018-08-13T12:03:10.761Z,2.60
2018-08-13T12:05:38.366Z,3.42
2018-08-13T12:08:06.044Z,2.77
2018-08-13T12:10:33.714Z,2.62
2018-08-13T12:13:01.412Z,3.00
2018-08-13T12:15:29.066Z,2.58
2018-08-13T12:17:56.669Z,1.72
2018-08-13T12:20:24.351Z,2.40
2018-08-13T12:22:51.993Z,2.65
2018-08-13T12:25:23.153Z,2.58
2018-08-13T12:27:51.000Z,2.65
2018-08-13T12:30:18.792Z,3.35
2018-08-13T12:32:47.141Z,2.70
2018-08-13T12:35:14.809Z,1.80
2018-08-13T12:37:42.438Z,3.90
2018-08-13T12:40:10.379Z,3.08
2018-08-13T12:42:38.579Z,2.47
2018-08-13T12:45:10.356Z,3.08
2018-08-13T12:47:38.322Z,3.10
2018-08-13T12:50:16.402Z,3.87
2018-08-13T12:52:45.039Z,2.50
2018-08-13T12:55:13.055Z,3.50
2018-08-13T12:57:40.868Z,3.08
2018-08-13T13:00:13.090Z,2.80
2018-08-13T13:02:41.097Z,3.40
2018-08-13T13:05:10.725Z,2.33
2018-08-13T13:07:38.463Z,3.15
2018-08-13T13:10:08.894Z,2.25
2018-08-13T13:12:36.712Z,2.42
2018-08-13T13:15:06.867Z,2.55
2018-08-13T13:17:35.013Z,3.52
2018-08-13T13:20:03.419Z,2.40
2018-08-13T13:22:31.061Z,2.80
2018-08-13T13:24:58.730Z,2.52
2018-08-13T13:27:26.371Z,2.90
2018-08-13T13:29:54.056Z,3.20
2018-08-13T13:32:21.750Z,2.80
2018-08-13T13:34:49.503Z,4.25
2018-08-13T13:37:17.136Z,4.80
2018-08-13T13:39:44.794Z,4.78
2018-08-13T13:42:12.389Z,4.45
2018-08-13T13:44:40.003Z,4.00
2018-08-13T13:47:07.695Z,3.10
2018-08-13T13:49:35.467Z,2.02
2018-08-13T13:52:03.781Z,1.45
2018-08-13T13:54:31.386Z,1.80
2018-08-13T13:56:59.045Z,1.70
2018-08-13T13:59:26.705Z,1.65
2018-08-13T14:01:54.367Z,2.08
2018-08-13T14:04:22.035Z,1.72
2018-08-13T14:06:49.626Z,3.00
2018-08-13T14:09:17.327Z,2.87
2018-08-13T14:11:45.051Z,1.60
2018-08-13T14:14:12.847Z,1.50
2018-08-13T14:16:40.736Z,1.35
2018-08-13T14:19:08.699Z,1.40
2018-08-13T14:21:36.337Z,1.45
2018-08-13T14:24:04.025Z,1.30
2018-08-13T14:26:31.653Z,1.35
2018-08-13T14:28:59.319Z,1.32
2018-08-13T14:31:26.968Z,1.20
2018-08-13T14:33:54.631Z,1.40
2018-08-13T14:36:22.306Z,1.20
2018-08-13T14:38:49.935Z,1.35
2018-08-13T14:41:17.975Z,1.32
2018-08-13T14:43:45.577Z,1.30
2018-08-13T14:46:13.207Z,1.72
2018-08-13T14:48:41.018Z,1.42
2018-08-13T14:51:08.679Z,1.57
2018-08-13T14:53:36.269Z,1.80
2018-08-13T14:56:03.905Z,1.65
2018-08-13T14:58:31.641Z,1.50
2018-08-13T15:00:59.318Z,1.65
2018-08-13T15:03:27.027Z,1.80
2018-08-13T15:05:54.697Z,1.60
2018-08-13T15:08:22.342Z,1.30
2018-08-13T15:10:49.966Z,2.02
2018-08-13T15:13:17.825Z,2.15
2018-08-13T15:15:45.521Z,1.65
2018-08-13T15:18:13.214Z,1.67
2018-08-13T15:20:40.867Z,2.30
2018-08-13T15:23:08.535Z,2.17
2018-08-13T15:25:37.116Z,1.67
2018-08-13T15:28:05.001Z,2.40
2018-08-13T15:30:32.551Z,1.92
2018-08-13T15:33:00.185Z,2.20
2018-08-13T15:35:27.846Z,2.10
2018-08-13T15:37:55.437Z,2.55
2018-08-13T15:40:23.054Z,2.35
2018-08-13T15:42:51.592Z,2.50
2018-08-13T15:45:20.743Z,2.70
2018-08-13T15:47:48.752Z,3.02
2018-08-13T15:50:17.586Z,2.87
2018-08-13T15:52:45.766Z,2.95
2018-08-13T15:55:13.638Z,2.98
2018-08-13T15:57:41.817Z,3.30
2018-08-13T16:00:13.219Z,3.17
2018-08-13T16:02:40.865Z,4.03
2018-08-13T16:05:09.574Z,3.92
2018-08-13T16:07:37.238Z,3.67
2018-08-13T16:10:09.082Z,3.40
2018-08-13T16:12:36.718Z,3.90
2018-08-13T16:15:05.326Z,3.27
2018-08-13T16:17:33.102Z,3.87
2018-08-13T16:20:00.794Z,3.08
2018-08-13T16:22:28.632Z,4.00
2018-08-13T16:24:56.224Z,4.10
2018-08-13T16:27:23.865Z,4.12
2018-08-13T16:29:51.486Z,3.83
2018-08-13T16:32:19.110Z,3.98
2018-08-13T16:34:46.740Z,4.05
2018-08-13T16:37:14.415Z,4.28
2018-08-13T16:39:42.457Z,2.37
2018-08-13T16:42:10.090Z,2.20
2018-08-13T16:44:37.758Z,1.95
2018-08-13T16:47:05.438Z,1.80
2018-08-13T16:49:33.081Z,1.80
2018-08-13T16:52:00.697Z,2.12
2018-08-13T16:54:28.369Z,1.40
2018-08-13T16:56:56.026Z,1.67
2018-08-13T16:59:23.715Z,1.50
2018-08-13T17:01:51.346Z,1.87
2018-08-13T17:04:18.977Z,1.82
2018-08-13T17:06:46.630Z,1.90
2018-08-13T17:09:14.262Z,2.30
2018-08-13T17:11:41.923Z,1.80
2018-08-13T17:14:12.511Z,2.00
2018-08-13T17:16:42.859Z,1.65
2018-08-13T17:19:10.582Z,2.10
2018-08-13T17:21:38.377Z,1.70
2018-08-13T17:24:09.026Z,1.95
2018-08-13T17:26:36.794Z,1.95
2018-08-13T17:29:05.130Z,1.62
2018-08-13T17:31:32.766Z,1.50
2018-08-13T17:34:00.453Z,1.32
2018-08-13T17:36:28.030Z,1.90
2018-08-13T17:38:55.651Z,1.52
2018-08-13T17:41:23.284Z,2.20
2018-08-13T17:43:50.938Z,1.92
2018-08-13T17:46:18.598Z,1.90
2018-08-13T17:48:46.262Z,1.70
2018-08-13T17:51:13.916Z,1.77
2018-08-13T17:53:41.591Z,1.92
2018-08-13T17:56:09.181Z,1.80
2018-08-13T17:58:36.827Z,1.50
2018-08-13T18:01:04.505Z,1.60
2018-08-13T18:03:33.049Z,1.47
2018-08-13T18:06:00.687Z,1.40
2018-08-13T18:08:28.285Z,1.80
2018-08-13T18:10:55.889Z,1.70
2018-08-13T18:13:23.492Z,1.57
2018-08-13T18:15:51.103Z,1.52
2018-08-13T18:18:18.740Z,1.85
2018-08-13T18:20:46.390Z,1.50
2018-08-13T18:23:14.007Z,1.67
2018-08-13T18:25:41.679Z,1.52
2018-08-13T18:28:09.301Z,1.30
2018-08-13T18:30:36.929Z,1.70
2018-08-13T18:33:04.608Z,1.50
2018-08-13T18:35:32.826Z,1.32
2018-08-13T18:38:00.509Z,1.37
2018-08-13T18:40:31.889Z,1.60
2018-08-13T18:42:59.497Z,1.45
2018-08-13T18:45:27.154Z,1.45
2018-08-13T18:47:54.801Z,1.40
2018-08-13T18:50:22.757Z,1.50
2018-08-13T18:52:50.581Z,1.40
2018-08-13T18:55:22.838Z,1.52
2018-08-13T18:57:50.858Z,1.67
2018-08-13T19:00:23.075Z,1.60
2018-08-13T19:02:50.875Z,1.60
2018-08-13T19:05:20.662Z,1.60
2018-08-13T19:07:49.090Z,1.47
2018-08-13T19:10:17.574Z,1.80
2018-08-13T19:12:45.298Z,1.57
2018-08-13T19:15:16.177Z,1.80
2018-08-13T19:17:43.867Z,1.87
2018-08-13T19:20:12.624Z,1.80
2018-08-13T19:22:40.533Z,1.80
2018-08-13T19:25:12.040Z,2.15
2018-08-13T19:27:39.774Z,2.12
2018-08-13T19:30:09.001Z,2.20
2018-08-13T19:32:36.707Z,2.30
2018-08-13T19:35:05.543Z,1.75
2018-08-13T19:37:33.169Z,1.70
2018-08-13T19:40:00.812Z,2.25
2018-08-13T19:42:28.398Z,2.37
2018-08-13T19:44:56.035Z,2.60
2018-08-13T19:47:23.690Z,2.50
2018-08-13T19:49:51.363Z,2.63
2018-08-13T19:52:18.963Z,2.65
2018-08-13T19:54:46.568Z,2.90
2018-08-13T19:57:14.236Z,2.70
2018-08-13T19:59:41.957Z,2.67
2018-08-13T20:02:09.601Z,2.90
2018-08-13T20:04:37.238Z,2.73
2018-08-13T20:07:04.926Z,2.80
2018-08-13T20:09:32.579Z,3.10
2018-08-13T20:12:00.221Z,3.30
2018-08-13T20:14:27.822Z,3.30
2018-08-13T20:16:55.486Z,3.95
2018-08-13T20:19:23.117Z,4.07
2018-08-13T20:21:50.763Z,3.87
2018-08-13T20:24:18.527Z,4.10
2018-08-13T20:26:46.354Z,3.70
2018-08-13T20:29:14.134Z,3.57
2018-08-13T20:31:42.242Z,4.13
2018-08-13T20:34:09.898Z,4.22
2018-08-13T20:36:38.509Z,3.90
2018-08-13T20:39:10.913Z,3.80
2018-08-13T20:41:38.655Z,4.03
2018-08-13T20:44:06.721Z,4.10
2018-08-13T20:46:34.463Z,4.03
2018-08-13T20:49:02.102Z,4.23
2018-08-13T20:51:29.717Z,3.73
2018-08-13T20:53:57.333Z,4.40
2018-08-13T20:56:24.987Z,3.57
2018-08-13T20:58:52.639Z,3.57
2018-08-13T21:01:20.298Z,3.73
2018-08-13T21:03:47.975Z,4.30
2018-08-13T21:06:15.574Z,3.77
2018-08-13T21:08:43.203Z,3.83
2018-08-13T21:11:10.846Z,3.30
2018-08-13T21:13:38.461Z,4.03
2018-08-13T21:16:06.255Z,4.90
2018-08-13T21:18:33.890Z,3.60
2018-08-13T21:21:01.507Z,2.85
2018-08-13T21:23:29.127Z,2.60
2018-08-13T21:25:56.779Z,3.75
2018-08-13T21:28:24.389Z,3.90
2018-08-13T21:30:52.016Z,3.90
2018-08-13T21:33:19.629Z,4.80
2018-08-13T21:35:47.255Z,3.70
2018-08-13T21:38:14.913Z,4.53
2018-08-13T21:40:42.540Z,4.87
2018-08-13T21:43:10.165Z,4.05
2018-08-13T21:45:37.803Z,4.00
2018-08-13T21:48:05.606Z,4.47
2018-08-13T21:50:33.253Z,4.30
2018-08-13T21:53:00.893Z,5.40
2018-08-13T21:55:28.514Z,6.05
2018-08-13T21:57:56.154Z,3.20
2018-08-13T22:00:35.918Z,5.47
2018-08-13T22:03:03.595Z,5.95
2018-08-13T22:05:31.258Z,6.07
2018-08-13T22:07:58.946Z,6.62
2018-08-13T22:10:26.624Z,6.17
2018-08-13T22:12:54.386Z,7.20
2018-08-13T22:15:29.669Z,4.33
2018-08-13T22:18:01.995Z,4.73
2018-08-13T22:20:32.421Z,4.33
2018-08-13T22:23:00.891Z,4.23
2018-08-13T22:25:31.057Z,5.33
2018-08-13T22:27:59.210Z,4.83
2018-08-13T22:30:27.894Z,3.50
2018-08-13T22:32:55.582Z,2.80
2018-08-13T22:35:23.208Z,3.30
2018-08-13T22:37:50.837Z,5.08
2018-08-13T22:40:19.441Z,4.65
2018-08-13T22:42:47.159Z,4.60
2018-08-13T22:45:16.679Z,5.53
2018-08-13T22:47:44.502Z,5.33
2018-08-13T22:50:12.145Z,5.10
2018-08-13T22:52:39.791Z,5.43
2018-08-13T22:55:09.454Z,4.67
2018-08-13T22:57:38.502Z,3.97
2018-08-13T23:00:08.696Z,4.55
2018-08-13T23:02:36.327Z,3.93
2018-08-13T23:05:05.934Z,4.28
2018-08-13T23:07:33.583Z,4.50
2018-08-13T23:10:01.215Z,4.80
2018-08-13T23:12:28.838Z,5.40
2018-08-13T23:14:56.480Z,5.97
2018-08-13T23:17:24.093Z,4.83
2018-08-13T23:19:51.738Z,5.90
2018-08-13T23:22:38.315Z,6.37
2018-08-13T23:25:05.962Z,4.60
2018-08-13T23:27:33.594Z,5.80
2018-08-13T23:30:02.151Z,5.80
2018-08-13T23:32:29.751Z,5.40
2018-08-13T23:34:57.421Z,5.57
2018-08-13T23:37:25.361Z,4.10
2018-08-13T23:39:53.029Z,5.53
2018-08-13T23:42:20.685Z,7.10
2018-08-13T23:44:48.300Z,7.33
2018-08-13T23:47:16.006Z,6.40
2018-08-13T23:49:43.629Z,6.27
2018-08-13T23:52:12.250Z,7.27
2018-08-13T23:54:39.918Z,5.77
2018-08-13T23:57:07.573Z,6.27
2018-08-13T23:59:35.422Z,7.43
